sensor_id;sensor_type;location;lat;lon;timestamp;temperature;humidity
46732;DHT22;32477;51.474;5.696;2024-02-16T00:00:01;11.20;99.90
46732;DHT22;32477;51.474;5.696;2024-02-16T00:02:26;11.20;99.90
46732;DHT22;32477;51.474;5.696;2024-02-16T00:04:52;11.20;99.90
46732;DHT22;32477;51.474;5.696;2024-02-16T00:07:18;11.10;99.90
46732;DHT22;32477;51.474;5.696;2024-02-16T00:09:43;11.10;99.90
46732;DHT22;32477;51.474;5.696;2024-02-16T00:12:09;11.00;99.90
46732;DHT22;32477;51.474;5.696;2024-02-16T00:14:34;11.10;99.90
46732;DHT22;32477;51.474;5.696;2024-02-16T00:17:00;11.10;99.90
46732;DHT22;32477;51.474;5.696;2024-02-16T00:19:26;11.20;99.90
46732;DHT22;32477;51.474;5.696;2024-02-16T00:21:53;11.30;99.90
46732;DHT22;32477;51.474;5.696;2024-02-16T00:24:18;11.20;99.90
46732;DHT22;32477;51.474;5.696;2024-02-16T00:26:44;11.20;99.90
46732;DHT22;32477;51.474;5.696;2024-02-16T00:29:11;11.20;99.90
46732;DHT22;32477;51.474;5.696;2024-02-16T00:31:36;11.20;99.90
46732;DHT22;32477;51.474;5.696;2024-02-16T00:34:02;11.20;99.90
46732;DHT22;32477;51.474;5.696;2024-02-16T00:36:28;11.30;99.90
46732;DHT22;32477;51.474;5.696;2024-02-16T00:38:56;11.30;99.90
46732;DHT22;32477;51.474;5.696;2024-02-16T00:41:22;11.20;99.90
46732;DHT22;32477;51.474;5.696;2024-02-16T00:43:49;11.20;99.90
46732;DHT22;32477;51.474;5.696;2024-02-16T00:46:16;11.20;99.90
46732;DHT22;32477;51.474;5.696;2024-02-16T00:48:41;11.20;99.90
46732;DHT22;32477;51.474;5.696;2024-02-16T00:51:07;11.20;99.90
46732;DHT22;32477;51.474;5.696;2024-02-16T00:53:33;11.20;99.90
46732;DHT22;32477;51.474;5.696;2024-02-16T00:55:58;11.10;99.90
46732;DHT22;32477;51.474;5.696;2024-02-16T00:58:24;11.10;99.90
46732;DHT22;32477;51.474;5.696;2024-02-16T01:00:49;11.00;99.90
46732;DHT22;32477;51.474;5.696;2024-02-16T01:03:15;10.90;99.90
46732;DHT22;32477;51.474;5.696;2024-02-16T01:05:40;10.90;99.90
46732;DHT22;32477;51.474;5.696;2024-02-16T01:08:06;10.90;99.90
46732;DHT22;32477;51.474;5.696;2024-02-16T01:10:32;10.80;99.90
46732;DHT22;32477;51.474;5.696;2024-02-16T01:12:58;10.80;99.90
46732;DHT22;32477;51.474;5.696;2024-02-16T01:15:23;10.80;99.90
46732;DHT22;32477;51.474;5.696;2024-02-16T01:17:49;10.80;99.90
46732;DHT22;32477;51.474;5.696;2024-02-16T01:20:15;10.80;99.90
46732;DHT22;32477;51.474;5.696;2024-02-16T01:22:41;10.80;99.90
46732;DHT22;32477;51.474;5.696;2024-02-16T01:25:08;10.80;99.90
46732;DHT22;32477;51.474;5.696;2024-02-16T01:27:34;10.70;99.90
46732;DHT22;32477;51.474;5.696;2024-02-16T01:30:01;10.70;99.90
46732;DHT22;32477;51.474;5.696;2024-02-16T01:32:26;10.70;99.90
46732;DHT22;32477;51.474;5.696;2024-02-16T01:34:52;10.60;99.90
46732;DHT22;32477;51.474;5.696;2024-02-16T01:37:18;10.60;99.90
46732;DHT22;32477;51.474;5.696;2024-02-16T01:39:44;10.60;99.90
46732;DHT22;32477;51.474;5.696;2024-02-16T01:42:10;10.60;99.90
46732;DHT22;32477;51.474;5.696;2024-02-16T01:44:36;10.60;99.90
46732;DHT22;32477;51.474;5.696;2024-02-16T01:47:03;10.50;99.90
46732;DHT22;32477;51.474;5.696;2024-02-16T01:49:29;10.60;99.90
46732;DHT22;32477;51.474;5.696;2024-02-16T01:51:55;10.60;99.90
46732;DHT22;32477;51.474;5.696;2024-02-16T01:54:21;10.50;99.90
46732;DHT22;32477;51.474;5.696;2024-02-16T01:56:46;10.50;99.90
46732;DHT22;32477;51.474;5.696;2024-02-16T01:59:12;10.60;99.90
46732;DHT22;32477;51.474;5.696;2024-02-16T02:01:38;10.60;99.90
46732;DHT22;32477;51.474;5.696;2024-02-16T02:04:04;10.60;99.90
46732;DHT22;32477;51.474;5.696;2024-02-16T02:06:31;10.70;99.90
46732;DHT22;32477;51.474;5.696;2024-02-16T02:08:57;10.70;99.90
46732;DHT22;32477;51.474;5.696;2024-02-16T02:11:22;10.70;99.90
46732;DHT22;32477;51.474;5.696;2024-02-16T02:13:48;10.70;99.90
46732;DHT22;32477;51.474;5.696;2024-02-16T02:16:15;10.70;99.90
46732;DHT22;32477;51.474;5.696;2024-02-16T02:18:42;10.70;99.90
46732;DHT22;32477;51.474;5.696;2024-02-16T02:21:08;10.70;99.90
46732;DHT22;32477;51.474;5.696;2024-02-16T02:23:34;10.70;99.90
46732;DHT22;32477;51.474;5.696;2024-02-16T02:26:01;10.80;99.90
46732;DHT22;32477;51.474;5.696;2024-02-16T02:28:26;10.70;99.90
46732;DHT22;32477;51.474;5.696;2024-02-16T02:30:52;10.80;99.90
46732;DHT22;32477;51.474;5.696;2024-02-16T02:33:18;10.90;99.90
46732;DHT22;32477;51.474;5.696;2024-02-16T02:35:45;10.90;99.90
46732;DHT22;32477;51.474;5.696;2024-02-16T02:38:12;11.00;99.90
46732;DHT22;32477;51.474;5.696;2024-02-16T02:40:38;11.00;99.90
46732;DHT22;32477;51.474;5.696;2024-02-16T02:43:03;11.00;99.90
46732;DHT22;32477;51.474;5.696;2024-02-16T02:45:29;11.00;99.90
46732;DHT22;32477;51.474;5.696;2024-02-16T02:47:55;11.00;99.90
46732;DHT22;32477;51.474;5.696;2024-02-16T02:50:20;11.10;99.90
46732;DHT22;32477;51.474;5.696;2024-02-16T02:52:46;11.20;99.90
46732;DHT22;32477;51.474;5.696;2024-02-16T02:55:11;11.20;99.90
46732;DHT22;32477;51.474;5.696;2024-02-16T02:57:37;11.30;99.90
46732;DHT22;32477;51.474;5.696;2024-02-16T03:00:04;11.30;99.90
46732;DHT22;32477;51.474;5.696;2024-02-16T03:02:31;11.30;99.90
46732;DHT22;32477;51.474;5.696;2024-02-16T03:04:57;11.30;99.90
46732;DHT22;32477;51.474;5.696;2024-02-16T03:07:23;11.30;99.90
46732;DHT22;32477;51.474;5.696;2024-02-16T03:09:48;11.30;99.90
46732;DHT22;32477;51.474;5.696;2024-02-16T03:12:14;11.20;99.90
46732;DHT22;32477;51.474;5.696;2024-02-16T03:14:39;11.10;99.90
46732;DHT22;32477;51.474;5.696;2024-02-16T03:17:05;11.10;99.90
46732;DHT22;32477;51.474;5.696;2024-02-16T03:19:30;11.00;99.90
46732;DHT22;32477;51.474;5.696;2024-02-16T03:21:56;11.00;99.90
46732;DHT22;32477;51.474;5.696;2024-02-16T03:24:22;11.00;99.90
46732;DHT22;32477;51.474;5.696;2024-02-16T03:26:48;11.00;99.90
46732;DHT22;32477;51.474;5.696;2024-02-16T03:29:14;11.00;99.90
46732;DHT22;32477;51.474;5.696;2024-02-16T03:31:39;11.00;99.90
46732;DHT22;32477;51.474;5.696;2024-02-16T03:34:05;11.00;99.90
46732;DHT22;32477;51.474;5.696;2024-02-16T03:36:31;11.00;99.90
46732;DHT22;32477;51.474;5.696;2024-02-16T03:38:56;11.10;99.90
46732;DHT22;32477;51.474;5.696;2024-02-16T03:41:22;11.20;99.90
46732;DHT22;32477;51.474;5.696;2024-02-16T03:43:49;11.20;99.90
46732;DHT22;32477;51.474;5.696;2024-02-16T03:46:15;11.20;99.90
46732;DHT22;32477;51.474;5.696;2024-02-16T03:48:41;11.20;99.90
46732;DHT22;32477;51.474;5.696;2024-02-16T03:51:07;11.30;99.90
46732;DHT22;32477;51.474;5.696;2024-02-16T03:53:33;11.30;99.90
46732;DHT22;32477;51.474;5.696;2024-02-16T03:55:59;11.30;99.90
46732;DHT22;32477;51.474;5.696;2024-02-16T03:58:25;11.30;99.90
46732;DHT22;32477;51.474;5.696;2024-02-16T04:00:52;11.30;99.90
46732;DHT22;32477;51.474;5.696;2024-02-16T04:03:20;11.30;99.90
46732;DHT22;32477;51.474;5.696;2024-02-16T04:05:46;11.30;99.90
46732;DHT22;32477;51.474;5.696;2024-02-16T04:08:11;11.30;99.90
46732;DHT22;32477;51.474;5.696;2024-02-16T04:10:37;11.30;99.90
46732;DHT22;32477;51.474;5.696;2024-02-16T04:13:03;11.40;99.90
46732;DHT22;32477;51.474;5.696;2024-02-16T04:15:29;11.50;99.90
46732;DHT22;32477;51.474;5.696;2024-02-16T04:17:54;11.50;99.90
46732;DHT22;32477;51.474;5.696;2024-02-16T04:20:20;11.50;99.90
46732;DHT22;32477;51.474;5.696;2024-02-16T04:22:46;11.50;99.90
46732;DHT22;32477;51.474;5.696;2024-02-16T04:25:12;11.50;99.90
46732;DHT22;32477;51.474;5.696;2024-02-16T04:27:37;11.50;99.90
46732;DHT22;32477;51.474;5.696;2024-02-16T04:30:04;11.50;99.90
46732;DHT22;32477;51.474;5.696;2024-02-16T04:32:30;11.40;99.90
46732;DHT22;32477;51.474;5.696;2024-02-16T04:34:56;11.40;99.90
46732;DHT22;32477;51.474;5.696;2024-02-16T04:37:22;11.30;99.90
46732;DHT22;32477;51.474;5.696;2024-02-16T04:39:48;11.40;99.90
46732;DHT22;32477;51.474;5.696;2024-02-16T04:42:14;11.40;99.90
46732;DHT22;32477;51.474;5.696;2024-02-16T04:44:40;11.40;99.90
46732;DHT22;32477;51.474;5.696;2024-02-16T04:47:05;11.40;99.90
46732;DHT22;32477;51.474;5.696;2024-02-16T04:49:31;11.40;99.90
46732;DHT22;32477;51.474;5.696;2024-02-16T04:51:57;11.30;99.90
46732;DHT22;32477;51.474;5.696;2024-02-16T04:54:23;11.30;99.90
46732;DHT22;32477;51.474;5.696;2024-02-16T04:56:49;11.30;99.90
46732;DHT22;32477;51.474;5.696;2024-02-16T04:59:16;11.30;99.90
46732;DHT22;32477;51.474;5.696;2024-02-16T05:01:43;11.40;99.90
46732;DHT22;32477;51.474;5.696;2024-02-16T05:04:10;11.40;99.90
46732;DHT22;32477;51.474;5.696;2024-02-16T05:06:39;11.30;99.90
46732;DHT22;32477;51.474;5.696;2024-02-16T05:09:08;11.30;99.90
46732;DHT22;32477;51.474;5.696;2024-02-16T05:11:34;11.30;99.90
46732;DHT22;32477;51.474;5.696;2024-02-16T05:13:59;11.30;99.90
46732;DHT22;32477;51.474;5.696;2024-02-16T05:16:26;11.40;99.90
46732;DHT22;32477;51.474;5.696;2024-02-16T05:18:52;11.40;99.90
46732;DHT22;32477;51.474;5.696;2024-02-16T05:21:17;11.40;99.90
46732;DHT22;32477;51.474;5.696;2024-02-16T05:23:43;11.40;99.90
46732;DHT22;32477;51.474;5.696;2024-02-16T05:26:09;11.40;99.90
46732;DHT22;32477;51.474;5.696;2024-02-16T05:28:34;11.40;99.90
46732;DHT22;32477;51.474;5.696;2024-02-16T05:31:17;11.50;99.90
46732;DHT22;32477;51.474;5.696;2024-02-16T05:33:46;11.60;99.90
46732;DHT22;32477;51.474;5.696;2024-02-16T05:36:12;11.70;99.90
46732;DHT22;32477;51.474;5.696;2024-02-16T05:38:38;11.70;99.90
46732;DHT22;32477;51.474;5.696;2024-02-16T05:41:07;11.80;99.90
46732;DHT22;32477;51.474;5.696;2024-02-16T05:43:33;11.80;99.90
46732;DHT22;32477;51.474;5.696;2024-02-16T05:45:59;11.80;99.90
46732;DHT22;32477;51.474;5.696;2024-02-16T05:48:25;11.90;99.90
46732;DHT22;32477;51.474;5.696;2024-02-16T05:50:52;11.90;99.90
46732;DHT22;32477;51.474;5.696;2024-02-16T05:53:18;11.90;99.90
46732;DHT22;32477;51.474;5.696;2024-02-16T05:55:46;11.90;99.90
46732;DHT22;32477;51.474;5.696;2024-02-16T05:58:13;11.90;99.90
46732;DHT22;32477;51.474;5.696;2024-02-16T06:00:38;11.90;99.90
46732;DHT22;32477;51.474;5.696;2024-02-16T06:03:04;11.90;99.90
46732;DHT22;32477;51.474;5.696;2024-02-16T06:05:29;11.90;99.90
46732;DHT22;32477;51.474;5.696;2024-02-16T06:07:55;11.80;99.90
46732;DHT22;32477;51.474;5.696;2024-02-16T06:10:22;11.80;99.90
46732;DHT22;32477;51.474;5.696;2024-02-16T06:12:48;11.80;99.90
46732;DHT22;32477;51.474;5.696;2024-02-16T06:15:14;11.90;99.90
46732;DHT22;32477;51.474;5.696;2024-02-16T06:17:40;11.90;99.90
46732;DHT22;32477;51.474;5.696;2024-02-16T06:20:06;12.00;99.90
46732;DHT22;32477;51.474;5.696;2024-02-16T06:22:35;12.00;99.90
46732;DHT22;32477;51.474;5.696;2024-02-16T06:25:00;12.00;99.90
46732;DHT22;32477;51.474;5.696;2024-02-16T06:27:26;12.00;99.90
46732;DHT22;32477;51.474;5.696;2024-02-16T06:29:52;12.00;99.90
46732;DHT22;32477;51.474;5.696;2024-02-16T06:32:17;12.00;99.90
46732;DHT22;32477;51.474;5.696;2024-02-16T06:34:44;12.20;99.90
46732;DHT22;32477;51.474;5.696;2024-02-16T06:37:11;12.40;99.90
46732;DHT22;32477;51.474;5.696;2024-02-16T06:39:36;12.40;99.90
46732;DHT22;32477;51.474;5.696;2024-02-16T06:42:02;12.50;99.90
46732;DHT22;32477;51.474;5.696;2024-02-16T06:44:29;12.70;99.90
46732;DHT22;32477;51.474;5.696;2024-02-16T06:46:54;12.70;99.90
46732;DHT22;32477;51.474;5.696;2024-02-16T06:49:20;12.80;99.90
46732;DHT22;32477;51.474;5.696;2024-02-16T06:51:46;13.00;99.90
46732;DHT22;32477;51.474;5.696;2024-02-16T06:54:11;13.00;99.90
46732;DHT22;32477;51.474;5.696;2024-02-16T06:56:37;13.10;99.90
46732;DHT22;32477;51.474;5.696;2024-02-16T06:59:03;13.20;99.90
46732;DHT22;32477;51.474;5.696;2024-02-16T07:01:28;13.30;99.90
46732;DHT22;32477;51.474;5.696;2024-02-16T07:03:54;13.50;99.90
46732;DHT22;32477;51.474;5.696;2024-02-16T07:06:20;13.40;99.90
46732;DHT22;32477;51.474;5.696;2024-02-16T07:08:46;13.50;99.90
46732;DHT22;32477;51.474;5.696;2024-02-16T07:11:11;13.40;99.90
46732;DHT22;32477;51.474;5.696;2024-02-16T07:13:39;13.40;99.90
46732;DHT22;32477;51.474;5.696;2024-02-16T07:16:05;13.40;99.90
46732;DHT22;32477;51.474;5.696;2024-02-16T07:18:32;13.50;99.90
46732;DHT22;32477;51.474;5.696;2024-02-16T07:20:59;13.50;99.90
46732;DHT22;32477;51.474;5.696;2024-02-16T07:23:25;13.60;99.90
46732;DHT22;32477;51.474;5.696;2024-02-16T07:25:50;13.60;99.90
46732;DHT22;32477;51.474;5.696;2024-02-16T07:28:16;13.60;99.90
46732;DHT22;32477;51.474;5.696;2024-02-16T07:30:43;13.60;99.90
46732;DHT22;32477;51.474;5.696;2024-02-16T07:33:08;13.60;99.90
46732;DHT22;32477;51.474;5.696;2024-02-16T07:35:34;13.60;99.90
46732;DHT22;32477;51.474;5.696;2024-02-16T07:38:04;13.70;99.90
46732;DHT22;32477;51.474;5.696;2024-02-16T07:40:30;13.60;99.90
46732;DHT22;32477;51.474;5.696;2024-02-16T07:42:58;13.70;99.90
46732;DHT22;32477;51.474;5.696;2024-02-16T07:45:24;13.70;99.90
46732;DHT22;32477;51.474;5.696;2024-02-16T07:47:50;13.70;99.90
46732;DHT22;32477;51.474;5.696;2024-02-16T07:50:20;13.70;99.90
46732;DHT22;32477;51.474;5.696;2024-02-16T07:52:46;13.70;99.90
46732;DHT22;32477;51.474;5.696;2024-02-16T07:55:11;13.70;99.90
46732;DHT22;32477;51.474;5.696;2024-02-16T07:57:37;13.80;99.90
46732;DHT22;32477;51.474;5.696;2024-02-16T08:00:04;13.80;99.90
46732;DHT22;32477;51.474;5.696;2024-02-16T08:02:30;13.80;99.90
46732;DHT22;32477;51.474;5.696;2024-02-16T08:04:55;13.70;99.90
46732;DHT22;32477;51.474;5.696;2024-02-16T08:07:21;13.80;99.90
46732;DHT22;32477;51.474;5.696;2024-02-16T08:09:47;13.70;99.90
46732;DHT22;32477;51.474;5.696;2024-02-16T08:12:13;13.60;99.90
46732;DHT22;32477;51.474;5.696;2024-02-16T08:14:39;13.70;99.90
46732;DHT22;32477;51.474;5.696;2024-02-16T08:17:08;13.70;99.90
46732;DHT22;32477;51.474;5.696;2024-02-16T08:19:36;13.80;99.90
46732;DHT22;32477;51.474;5.696;2024-02-16T08:22:07;13.80;99.90
46732;DHT22;32477;51.474;5.696;2024-02-16T08:24:37;13.90;99.90
46732;DHT22;32477;51.474;5.696;2024-02-16T08:27:03;13.90;99.90
46732;DHT22;32477;51.474;5.696;2024-02-16T08:29:30;13.90;99.90
46732;DHT22;32477;51.474;5.696;2024-02-16T08:31:56;14.00;99.90
46732;DHT22;32477;51.474;5.696;2024-02-16T08:34:21;14.00;99.90
46732;DHT22;32477;51.474;5.696;2024-02-16T08:36:48;13.90;99.90
46732;DHT22;32477;51.474;5.696;2024-02-16T08:39:14;14.00;99.90
46732;DHT22;32477;51.474;5.696;2024-02-16T08:41:41;14.00;99.90
46732;DHT22;32477;51.474;5.696;2024-02-16T08:44:07;14.20;99.90
46732;DHT22;32477;51.474;5.696;2024-02-16T08:46:38;14.10;99.90
46732;DHT22;32477;51.474;5.696;2024-02-16T08:49:05;14.10;99.90
46732;DHT22;32477;51.474;5.696;2024-02-16T08:51:34;14.20;99.90
46732;DHT22;32477;51.474;5.696;2024-02-16T08:54:00;14.20;99.90
46732;DHT22;32477;51.474;5.696;2024-02-16T08:56:27;14.10;99.90
46732;DHT22;32477;51.474;5.696;2024-02-16T08:58:53;14.10;99.90
46732;DHT22;32477;51.474;5.696;2024-02-16T09:01:33;14.10;99.90
46732;DHT22;32477;51.474;5.696;2024-02-16T09:03:59;14.10;99.90
46732;DHT22;32477;51.474;5.696;2024-02-16T09:06:26;14.10;99.90
46732;DHT22;32477;51.474;5.696;2024-02-16T09:08:51;14.10;99.90
46732;DHT22;32477;51.474;5.696;2024-02-16T09:11:17;14.10;99.90
46732;DHT22;32477;51.474;5.696;2024-02-16T09:13:43;14.10;99.90
46732;DHT22;32477;51.474;5.696;2024-02-16T09:16:09;14.10;99.90
46732;DHT22;32477;51.474;5.696;2024-02-16T09:18:35;14.10;99.90
46732;DHT22;32477;51.474;5.696;2024-02-16T09:21:03;14.10;99.90
46732;DHT22;32477;51.474;5.696;2024-02-16T09:23:29;14.10;99.90
46732;DHT22;32477;51.474;5.696;2024-02-16T09:25:55;14.10;99.90
46732;DHT22;32477;51.474;5.696;2024-02-16T09:28:21;14.10;99.90
46732;DHT22;32477;51.474;5.696;2024-02-16T09:30:47;14.20;99.90
46732;DHT22;32477;51.474;5.696;2024-02-16T09:33:13;14.30;99.90
46732;DHT22;32477;51.474;5.696;2024-02-16T09:35:41;14.30;99.90
46732;DHT22;32477;51.474;5.696;2024-02-16T09:38:07;14.40;99.90
46732;DHT22;32477;51.474;5.696;2024-02-16T09:40:36;14.50;99.90
46732;DHT22;32477;51.474;5.696;2024-02-16T09:43:02;14.50;99.90
46732;DHT22;32477;51.474;5.696;2024-02-16T09:45:28;14.60;99.90
46732;DHT22;32477;51.474;5.696;2024-02-16T09:47:54;14.60;99.90
46732;DHT22;32477;51.474;5.696;2024-02-16T09:50:21;14.50;99.90
46732;DHT22;32477;51.474;5.696;2024-02-16T09:52:48;14.40;99.90
46732;DHT22;32477;51.474;5.696;2024-02-16T09:55:15;14.20;99.90
46732;DHT22;32477;51.474;5.696;2024-02-16T09:57:41;13.80;99.90
46732;DHT22;32477;51.474;5.696;2024-02-16T10:00:10;13.60;99.90
46732;DHT22;32477;51.474;5.696;2024-02-16T10:02:42;13.40;99.90
46732;DHT22;32477;51.474;5.696;2024-02-16T10:05:15;13.30;99.90
46732;DHT22;32477;51.474;5.696;2024-02-16T10:07:41;13.20;99.90
46732;DHT22;32477;51.474;5.696;2024-02-16T10:10:26;13.20;99.90
46732;DHT22;32477;51.474;5.696;2024-02-16T10:13:02;13.10;99.90
46732;DHT22;32477;51.474;5.696;2024-02-16T10:15:29;13.10;99.90
46732;DHT22;32477;51.474;5.696;2024-02-16T10:17:59;13.20;99.90
46732;DHT22;32477;51.474;5.696;2024-02-16T10:20:25;13.30;99.90
46732;DHT22;32477;51.474;5.696;2024-02-16T10:23:11;13.30;99.90
46732;DHT22;32477;51.474;5.696;2024-02-16T10:25:40;13.30;99.90
46732;DHT22;32477;51.474;5.696;2024-02-16T10:28:10;13.30;99.90
46732;DHT22;32477;51.474;5.696;2024-02-16T10:30:39;13.30;99.90
46732;DHT22;32477;51.474;5.696;2024-02-16T10:33:06;13.20;99.90
46732;DHT22;32477;51.474;5.696;2024-02-16T10:35:35;13.20;99.90
46732;DHT22;32477;51.474;5.696;2024-02-16T10:38:05;13.20;99.90
46732;DHT22;32477;51.474;5.696;2024-02-16T10:40:40;13.10;99.90
46732;DHT22;32477;51.474;5.696;2024-02-16T10:43:07;13.20;99.90
46732;DHT22;32477;51.474;5.696;2024-02-16T10:45:35;13.20;99.90
46732;DHT22;32477;51.474;5.696;2024-02-16T10:48:03;13.20;99.90
46732;DHT22;32477;51.474;5.696;2024-02-16T10:50:31;13.20;99.90
46732;DHT22;32477;51.474;5.696;2024-02-16T10:53:00;13.30;99.90
46732;DHT22;32477;51.474;5.696;2024-02-16T10:55:28;13.30;99.90
46732;DHT22;32477;51.474;5.696;2024-02-16T10:57:56;13.30;99.90
46732;DHT22;32477;51.474;5.696;2024-02-16T11:00:22;13.30;99.90
46732;DHT22;32477;51.474;5.696;2024-02-16T11:02:58;13.30;99.90
46732;DHT22;32477;51.474;5.696;2024-02-16T11:05:41;13.30;99.90
46732;DHT22;32477;51.474;5.696;2024-02-16T11:08:15;13.20;99.90
46732;DHT22;32477;51.474;5.696;2024-02-16T11:10:41;13.10;99.90
46732;DHT22;32477;51.474;5.696;2024-02-16T11:13:23;13.10;99.90
46732;DHT22;32477;51.474;5.696;2024-02-16T11:16:00;13.00;99.90
46732;DHT22;32477;51.474;5.696;2024-02-16T11:18:27;13.10;99.90
46732;DHT22;32477;51.474;5.696;2024-02-16T11:20:54;13.20;99.90
46732;DHT22;32477;51.474;5.696;2024-02-16T11:23:28;13.30;99.90
46732;DHT22;32477;51.474;5.696;2024-02-16T11:26:04;13.40;99.90
46732;DHT22;32477;51.474;5.696;2024-02-16T11:28:34;13.40;99.90
46732;DHT22;32477;51.474;5.696;2024-02-16T11:31:00;13.40;99.90
46732;DHT22;32477;51.474;5.696;2024-02-16T11:33:26;13.50;99.90
46732;DHT22;32477;51.474;5.696;2024-02-16T11:36:02;13.40;99.90
46732;DHT22;32477;51.474;5.696;2024-02-16T11:38:32;13.40;99.90
46732;DHT22;32477;51.474;5.696;2024-02-16T11:41:04;13.40;99.90
46732;DHT22;32477;51.474;5.696;2024-02-16T11:43:30;13.50;99.90
46732;DHT22;32477;51.474;5.696;2024-02-16T11:45:57;13.50;99.90
46732;DHT22;32477;51.474;5.696;2024-02-16T11:48:24;13.50;99.90
46732;DHT22;32477;51.474;5.696;2024-02-16T11:50:58;13.50;99.90
46732;DHT22;32477;51.474;5.696;2024-02-16T11:53:24;13.50;99.90
46732;DHT22;32477;51.474;5.696;2024-02-16T11:55:50;13.50;99.90
46732;DHT22;32477;51.474;5.696;2024-02-16T11:58:19;13.50;99.90
46732;DHT22;32477;51.474;5.696;2024-02-16T12:00:49;13.50;99.90
46732;DHT22;32477;51.474;5.696;2024-02-16T12:03:24;13.40;99.90
46732;DHT22;32477;51.474;5.696;2024-02-16T12:05:58;13.40;99.90
46732;DHT22;32477;51.474;5.696;2024-02-16T12:08:31;13.30;99.90
46732;DHT22;32477;51.474;5.696;2024-02-16T12:10:57;13.30;99.90
46732;DHT22;32477;51.474;5.696;2024-02-16T12:13:22;13.20;99.90
46732;DHT22;32477;51.474;5.696;2024-02-16T12:15:49;13.20;99.90
46732;DHT22;32477;51.474;5.696;2024-02-16T12:18:25;13.10;99.90
46732;DHT22;32477;51.474;5.696;2024-02-16T12:21:07;13.10;99.90
46732;DHT22;32477;51.474;5.696;2024-02-16T12:23:36;13.10;99.90
46732;DHT22;32477;51.474;5.696;2024-02-16T12:26:02;13.00;99.90
46732;DHT22;32477;51.474;5.696;2024-02-16T12:28:30;13.00;99.90
46732;DHT22;32477;51.474;5.696;2024-02-16T12:30:59;13.00;99.90
46732;DHT22;32477;51.474;5.696;2024-02-16T12:33:25;12.90;99.90
46732;DHT22;32477;51.474;5.696;2024-02-16T12:35:52;12.90;99.90
46732;DHT22;32477;51.474;5.696;2024-02-16T12:38:18;12.90;99.90
46732;DHT22;32477;51.474;5.696;2024-02-16T12:40:45;12.90;99.90
46732;DHT22;32477;51.474;5.696;2024-02-16T12:43:11;12.90;99.90
46732;DHT22;32477;51.474;5.696;2024-02-16T12:45:38;12.90;99.90
46732;DHT22;32477;51.474;5.696;2024-02-16T12:48:04;12.90;99.90
46732;DHT22;32477;51.474;5.696;2024-02-16T12:50:31;12.90;99.90
46732;DHT22;32477;51.474;5.696;2024-02-16T12:52:57;12.80;99.90
46732;DHT22;32477;51.474;5.696;2024-02-16T12:55:23;12.80;99.90
46732;DHT22;32477;51.474;5.696;2024-02-16T12:57:49;12.80;99.90
46732;DHT22;32477;51.474;5.696;2024-02-16T13:00:17;12.80;99.90
46732;DHT22;32477;51.474;5.696;2024-02-16T13:02:43;12.80;99.90
46732;DHT22;32477;51.474;5.696;2024-02-16T13:05:09;12.80;99.90
46732;DHT22;32477;51.474;5.696;2024-02-16T13:07:36;12.80;99.90
46732;DHT22;32477;51.474;5.696;2024-02-16T13:10:05;12.70;99.90
46732;DHT22;32477;51.474;5.696;2024-02-16T13:12:31;12.70;99.90
46732;DHT22;32477;51.474;5.696;2024-02-16T13:14:57;12.70;99.90
46732;DHT22;32477;51.474;5.696;2024-02-16T13:17:22;12.80;99.90
46732;DHT22;32477;51.474;5.696;2024-02-16T13:19:48;12.80;99.90
46732;DHT22;32477;51.474;5.696;2024-02-16T13:22:14;12.80;99.90
46732;DHT22;32477;51.474;5.696;2024-02-16T13:24:40;12.90;99.90
46732;DHT22;32477;51.474;5.696;2024-02-16T13:27:06;12.90;99.90
46732;DHT22;32477;51.474;5.696;2024-02-16T13:29:32;12.90;99.90
46732;DHT22;32477;51.474;5.696;2024-02-16T13:31:59;12.90;99.90
46732;DHT22;32477;51.474;5.696;2024-02-16T13:34:24;12.80;99.90
46732;DHT22;32477;51.474;5.696;2024-02-16T13:36:52;12.80;99.90
46732;DHT22;32477;51.474;5.696;2024-02-16T13:39:18;12.80;99.90
46732;DHT22;32477;51.474;5.696;2024-02-16T13:41:45;12.80;99.90
46732;DHT22;32477;51.474;5.696;2024-02-16T13:44:12;12.70;99.90
46732;DHT22;32477;51.474;5.696;2024-02-16T13:46:38;12.70;99.90
46732;DHT22;32477;51.474;5.696;2024-02-16T13:49:04;12.70;99.90
46732;DHT22;32477;51.474;5.696;2024-02-16T13:51:29;12.60;99.90
46732;DHT22;32477;51.474;5.696;2024-02-16T13:53:55;12.60;99.90
46732;DHT22;32477;51.474;5.696;2024-02-16T13:56:20;12.60;99.90
46732;DHT22;32477;51.474;5.696;2024-02-16T13:58:46;12.50;99.90
46732;DHT22;32477;51.474;5.696;2024-02-16T14:01:12;12.50;99.90
46732;DHT22;32477;51.474;5.696;2024-02-16T14:03:39;12.50;99.90
46732;DHT22;32477;51.474;5.696;2024-02-16T14:06:06;12.40;99.90
46732;DHT22;32477;51.474;5.696;2024-02-16T14:08:33;12.30;99.90
46732;DHT22;32477;51.474;5.696;2024-02-16T14:11:00;12.40;99.90
46732;DHT22;32477;51.474;5.696;2024-02-16T14:13:25;12.50;99.90
46732;DHT22;32477;51.474;5.696;2024-02-16T14:15:51;12.60;99.90
46732;DHT22;32477;51.474;5.696;2024-02-16T14:18:17;12.60;99.90
46732;DHT22;32477;51.474;5.696;2024-02-16T14:20:42;12.60;99.90
46732;DHT22;32477;51.474;5.696;2024-02-16T14:23:08;12.60;99.90
46732;DHT22;32477;51.474;5.696;2024-02-16T14:25:35;12.60;99.90
46732;DHT22;32477;51.474;5.696;2024-02-16T14:28:03;12.60;99.90
46732;DHT22;32477;51.474;5.696;2024-02-16T14:30:29;12.60;99.90
46732;DHT22;32477;51.474;5.696;2024-02-16T14:32:54;12.50;99.90
46732;DHT22;32477;51.474;5.696;2024-02-16T14:35:20;12.50;99.90
46732;DHT22;32477;51.474;5.696;2024-02-16T14:37:47;12.60;99.90
46732;DHT22;32477;51.474;5.696;2024-02-16T14:40:13;12.60;99.90
46732;DHT22;32477;51.474;5.696;2024-02-16T14:42:39;12.60;99.90
46732;DHT22;32477;51.474;5.696;2024-02-16T14:45:05;12.70;99.90
46732;DHT22;32477;51.474;5.696;2024-02-16T14:47:35;12.70;99.90
46732;DHT22;32477;51.474;5.696;2024-02-16T14:50:01;12.70;99.90
46732;DHT22;32477;51.474;5.696;2024-02-16T14:52:29;12.70;99.90
46732;DHT22;32477;51.474;5.696;2024-02-16T14:54:55;12.70;99.90
46732;DHT22;32477;51.474;5.696;2024-02-16T14:57:22;12.80;99.90
46732;DHT22;32477;51.474;5.696;2024-02-16T14:59:50;12.70;99.90
46732;DHT22;32477;51.474;5.696;2024-02-16T15:02:23;12.60;99.90
46732;DHT22;32477;51.474;5.696;2024-02-16T15:04:49;12.70;99.90
46732;DHT22;32477;51.474;5.696;2024-02-16T15:07:16;12.60;99.90
46732;DHT22;32477;51.474;5.696;2024-02-16T15:09:42;12.60;99.90
46732;DHT22;32477;51.474;5.696;2024-02-16T15:12:08;12.60;99.90
46732;DHT22;32477;51.474;5.696;2024-02-16T15:14:33;12.50;99.90
46732;DHT22;32477;51.474;5.696;2024-02-16T15:17:00;12.50;99.90
46732;DHT22;32477;51.474;5.696;2024-02-16T15:19:26;12.40;99.90
46732;DHT22;32477;51.474;5.696;2024-02-16T15:21:51;12.40;99.90
46732;DHT22;32477;51.474;5.696;2024-02-16T15:24:17;12.40;99.90
46732;DHT22;32477;51.474;5.696;2024-02-16T15:26:43;12.40;99.90